createdAt,value
2023-01-13T00:01:59.896Z,48.92
2023-01-13T00:04:26.833Z,49.03
2023-01-13T00:06:53.694Z,47.72
2023-01-13T00:09:20.651Z,46.75
2023-01-13T00:11:47.779Z,45.13
2023-01-13T00:14:14.633Z,43.40
2023-01-13T00:16:41.667Z,42.53
2023-01-13T00:19:08.435Z,40.95
2023-01-13T00:21:36.669Z,41.13
2023-01-13T00:24:03.522Z,40.03
2023-01-13T00:26:36.343Z,38.25
2023-01-13T00:29:03.765Z,39.97
2023-01-13T00:31:31.064Z,39.63
2023-01-13T00:34:00.072Z,40.90
2023-01-13T00:36:27.658Z,37.55
2023-01-13T00:38:55.017Z,37.33
2023-01-13T00:41:24.108Z,35.45
2023-01-13T00:43:51.106Z,35.53
2023-01-13T00:46:20.972Z,36.70
2023-01-13T00:48:48.253Z,37.00
2023-01-13T00:51:17.874Z,34.40
2023-01-13T00:53:50.154Z,34.88
2023-01-13T00:56:38.584Z,33.72
2023-01-13T00:59:07.381Z,38.65
2023-01-13T01:01:34.324Z,37.40
2023-01-13T01:04:01.175Z,36.65
2023-01-13T01:06:28.477Z,38.47
2023-01-13T01:08:56.665Z,39.38
2023-01-13T01:11:26.418Z,39.03
2023-01-13T01:13:55.657Z,39.30
2023-01-13T01:16:23.938Z,41.00
2023-01-13T01:18:52.262Z,40.45
2023-01-13T01:21:19.992Z,41.70
2023-01-13T01:23:46.999Z,43.70
2023-01-13T01:26:16.691Z,43.70
2023-01-13T01:28:44.634Z,42.15
2023-01-13T01:31:15.790Z,48.53
2023-01-13T01:33:42.890Z,53.72
2023-01-13T01:36:12.080Z,53.97
2023-01-13T01:38:39.374Z,52.50
2023-01-13T01:41:07.157Z,60.42
2023-01-13T01:44:04.350Z,59.75
2023-01-13T01:46:39.678Z,58.20
2023-01-13T01:49:13.839Z,58.38
2023-01-13T01:52:09.006Z,55.53
2023-01-13T01:54:44.326Z,55.72
2023-01-13T01:57:17.428Z,53.80
2023-01-13T01:59:44.989Z,53.25
2023-01-13T02:02:12.384Z,50.15
2023-01-13T02:04:41.288Z,50.72
2023-01-13T02:07:08.606Z,49.15
2023-01-13T02:09:38.223Z,51.40
2023-01-13T02:12:23.953Z,59.38
2023-01-13T02:14:50.928Z,67.38
2023-01-13T02:17:48.718Z,66.47
2023-01-13T02:20:27.568Z,63.17
2023-01-13T02:22:57.365Z,65.65
2023-01-13T02:25:52.459Z,63.65
2023-01-13T02:29:23.913Z,54.53
2023-01-13T02:31:59.949Z,48.95
2023-01-13T02:34:51.925Z,47.78
2023-01-13T02:37:28.973Z,46.40
2023-01-13T02:40:03.073Z,44.80
2023-01-13T02:43:04.189Z,44.38
2023-01-13T02:45:46.678Z,44.85
2023-01-13T02:48:15.714Z,45.67
2023-01-13T02:50:50.275Z,46.05
2023-01-13T02:53:28.905Z,46.92
2023-01-13T02:56:01.038Z,45.05
2023-01-13T02:58:30.521Z,44.08
2023-01-13T03:00:57.940Z,45.22
2023-01-13T03:03:25.459Z,42.83
2023-01-13T03:06:00.953Z,43.85
2023-01-13T03:08:59.978Z,40.17
2023-01-13T03:11:32.785Z,41.10
2023-01-13T03:14:15.105Z,41.78
2023-01-13T03:16:57.066Z,41.53
2023-01-13T03:19:39.116Z,38.92
2023-01-13T03:22:27.321Z,45.88
2023-01-13T03:25:16.075Z,42.08
2023-01-13T03:28:04.789Z,44.22
2023-01-13T03:30:35.296Z,42.20
2023-01-13T03:33:34.580Z,43.65
2023-01-13T03:36:06.176Z,45.80
2023-01-13T03:38:37.409Z,48.15
2023-01-13T03:41:17.448Z,48.75
2023-01-13T03:44:25.696Z,45.47
2023-01-13T03:47:01.579Z,43.60
2023-01-13T03:49:51.826Z,41.38
2023-01-13T03:52:47.729Z,39.60
2023-01-13T03:55:21.457Z,37.45
2023-01-13T03:58:14.547Z,37.03
2023-01-13T04:00:50.618Z,36.10
2023-01-13T04:03:32.015Z,35.47
2023-01-13T04:06:09.242Z,33.78
2023-01-13T04:08:39.826Z,36.65
2023-01-13T04:11:16.009Z,37.40
2023-01-13T04:13:45.900Z,36.55
2023-01-13T04:16:13.753Z,37.80
2023-01-13T04:18:40.741Z,37.50
2023-01-13T04:21:08.236Z,36.95
2023-01-13T04:23:35.158Z,35.63
2023-01-13T04:26:02.142Z,34.65
2023-01-13T04:28:29.252Z,34.20
2023-01-13T04:30:56.313Z,35.80
2023-01-13T04:33:23.336Z,35.13
2023-01-13T04:35:50.219Z,35.95
2023-01-13T04:38:19.698Z,35.05
2023-01-13T04:40:47.006Z,37.47
2023-01-13T04:43:15.927Z,38.72
2023-01-13T04:45:43.802Z,38.60
2023-01-13T04:48:11.105Z,42.20
2023-01-13T04:50:37.912Z,47.53
2023-01-13T04:53:04.792Z,45.25
2023-01-13T04:55:32.381Z,42.50
2023-01-13T04:58:04.492Z,41.67
2023-01-13T05:00:32.155Z,41.13
2023-01-13T05:02:59.662Z,38.38
2023-01-13T05:05:28.144Z,37.63
2023-01-13T05:07:55.226Z,43.33
2023-01-13T05:10:23.993Z,39.10
2023-01-13T05:13:09.551Z,34.58
2023-01-13T05:15:56.849Z,35.05
2023-01-13T05:18:23.729Z,33.72
2023-01-13T05:20:50.654Z,34.45
2023-01-13T05:23:40.443Z,35.22
2023-01-13T05:26:07.412Z,34.65
2023-01-13T05:28:37.095Z,35.38
2023-01-13T05:31:04.064Z,36.58
2023-01-13T05:33:31.313Z,37.42
2023-01-13T05:36:02.959Z,33.50
2023-01-13T05:38:29.852Z,36.95
2023-01-13T05:41:18.393Z,33.78
2023-01-13T05:43:45.315Z,36.65
2023-01-13T05:46:13.096Z,34.20
2023-01-13T05:48:42.661Z,36.63
2023-01-13T05:51:12.198Z,37.42
2023-01-13T05:53:41.054Z,38.95
2023-01-13T05:56:09.105Z,40.40
2023-01-13T05:58:36.475Z,36.47
2023-01-13T06:01:06.376Z,36.15
2023-01-13T06:03:33.540Z,37.53
2023-01-13T06:06:02.399Z,38.85
2023-01-13T06:08:29.442Z,39.60
2023-01-13T06:10:58.841Z,40.63
2023-01-13T06:13:26.000Z,41.22
2023-01-13T06:15:57.777Z,50.20
2023-01-13T06:18:25.171Z,51.20
2023-01-13T06:20:52.019Z,49.95
2023-01-13T06:23:19.158Z,47.65
2023-01-13T06:26:16.406Z,45.30
2023-01-13T06:28:43.195Z,43.33
2023-01-13T06:31:11.217Z,42.25
2023-01-13T06:33:41.501Z,39.70
2023-01-13T06:36:14.849Z,41.08
2023-01-13T06:38:46.397Z,37.72
2023-01-13T06:41:13.605Z,34.60
2023-01-13T06:43:40.782Z,32.13
2023-01-13T06:46:07.795Z,29.42
2023-01-13T06:48:35.757Z,30.63
2023-01-13T06:51:04.244Z,30.55
2023-01-13T06:53:31.358Z,29.52
2023-01-13T06:55:58.183Z,29.08
2023-01-13T06:58:24.992Z,29.25
2023-01-13T07:00:51.998Z,28.08
2023-01-13T07:03:20.198Z,27.02
2023-01-13T07:05:55.142Z,25.80
2023-01-13T07:08:23.703Z,24.65
2023-01-13T07:10:51.620Z,25.73
2023-01-13T07:13:37.623Z,27.10
2023-01-13T07:16:06.864Z,24.73
2023-01-13T07:18:35.330Z,26.05
2023-01-13T07:21:08.102Z,26.23
2023-01-13T07:23:37.757Z,28.40
2023-01-13T07:26:05.270Z,28.42
2023-01-13T07:28:33.056Z,28.75
2023-01-13T07:31:00.605Z,27.58
2023-01-13T07:33:27.873Z,31.90
2023-01-13T07:36:00.148Z,32.33
2023-01-13T07:38:27.341Z,31.45
2023-01-13T07:40:54.636Z,33.33
2023-01-13T07:43:34.042Z,33.92
2023-01-13T07:46:06.322Z,35.30
2023-01-13T07:48:34.913Z,34.92
2023-01-13T07:51:07.918Z,35.10
2023-01-13T07:53:35.649Z,33.75
2023-01-13T07:56:04.044Z,31.73
2023-01-13T07:58:31.292Z,32.40
2023-01-13T08:00:58.370Z,31.77
2023-01-13T08:03:26.576Z,33.25
2023-01-13T08:05:53.605Z,33.17
2023-01-13T08:08:20.485Z,31.70
2023-01-13T08:10:47.504Z,31.70
2023-01-13T08:13:20.244Z,33.40
2023-01-13T08:15:52.933Z,32.83
2023-01-13T08:18:22.461Z,34.30
2023-01-13T08:20:50.109Z,33.08
2023-01-13T08:23:17.620Z,33.45
2023-01-13T08:25:45.309Z,32.70
2023-01-13T08:28:13.393Z,32.33
2023-01-13T08:30:40.488Z,33.20
2023-01-13T08:33:27.725Z,32.95
2023-01-13T08:35:54.739Z,35.38
2023-01-13T08:38:21.625Z,35.47
2023-01-13T08:40:48.659Z,34.90
2023-01-13T08:43:16.139Z,35.45
2023-01-13T08:45:43.060Z,36.38
2023-01-13T08:48:10.060Z,36.35
2023-01-13T08:50:36.890Z,35.67
2023-01-13T08:53:04.072Z,33.72
2023-01-13T08:55:31.143Z,31.58
2023-01-13T08:58:14.170Z,36.03
2023-01-13T09:00:42.502Z,32.20
2023-01-13T09:03:09.749Z,32.05
2023-01-13T09:05:36.865Z,32.97
2023-01-13T09:08:03.714Z,29.10
2023-01-13T09:10:30.667Z,30.35
2023-01-13T09:13:13.019Z,29.77
2023-01-13T09:15:42.370Z,32.80
2023-01-13T09:18:09.468Z,31.30
2023-01-13T09:20:37.053Z,29.33
2023-01-13T09:23:05.691Z,28.33
2023-01-13T09:25:36.664Z,27.52
2023-01-13T09:28:05.154Z,30.27
2023-01-13T09:30:32.540Z,28.10
2023-01-13T09:33:18.570Z,27.63
2023-01-13T09:35:45.522Z,26.58
2023-01-13T09:38:12.379Z,24.65
2023-01-13T09:40:41.740Z,26.20
2023-01-13T09:43:56.281Z,26.17
2023-01-13T09:46:47.711Z,26.83
2023-01-13T09:49:24.287Z,27.08
2023-01-13T09:54:28.633Z,25.40
2023-01-13T09:56:55.413Z,26.88
2023-01-13T09:59:22.334Z,26.55
2023-01-13T10:01:59.515Z,26.73
2023-01-13T10:04:27.161Z,27.23
2023-01-13T10:07:01.477Z,25.52
2023-01-13T10:09:46.478Z,27.67
2023-01-13T10:12:41.545Z,26.77
2023-01-13T10:15:15.534Z,25.90
2023-01-13T10:17:50.881Z,24.40
2023-01-13T10:20:35.717Z,22.70
2023-01-13T10:23:39.919Z,21.58
2023-01-13T10:26:47.685Z,23.10
2023-01-13T10:29:26.580Z,20.95
2023-01-13T10:31:55.003Z,23.30
2023-01-13T10:34:23.913Z,21.75
2023-01-13T10:37:09.321Z,20.42
2023-01-13T10:39:44.887Z,19.67
2023-01-13T10:42:17.834Z,21.88
2023-01-13T10:45:03.849Z,26.63
2023-01-13T10:47:36.365Z,26.45
2023-01-13T10:50:09.811Z,25.63
2023-01-13T10:52:43.321Z,21.05
2023-01-13T10:55:33.791Z,20.15
2023-01-13T10:58:21.647Z,19.58
2023-01-13T11:00:49.802Z,19.98
2023-01-13T11:03:18.656Z,19.10
2023-01-13T11:06:00.492Z,20.17
2023-01-13T11:08:40.455Z,20.10
2023-01-13T11:11:24.782Z,22.02
2023-01-13T11:14:13.724Z,22.65
2023-01-13T11:16:52.912Z,21.50
2023-01-13T11:19:29.384Z,32.45
2023-01-13T11:22:06.027Z,28.55
2023-01-13T11:27:34.739Z,28.38
2023-01-13T11:30:09.903Z,20.50
2023-01-13T11:32:56.701Z,20.35
2023-01-13T11:35:24.887Z,18.20
2023-01-13T11:37:56.389Z,18.90
2023-01-13T11:40:36.692Z,20.45
2023-01-13T11:43:21.763Z,20.52
2023-01-13T11:45:56.265Z,19.92
2023-01-13T11:48:27.211Z,19.48
2023-01-13T11:51:09.382Z,17.70
2023-01-13T11:54:04.247Z,12.07
2023-01-13T11:57:10.393Z,10.60
2023-01-13T11:59:56.705Z,13.10
2023-01-13T12:02:49.045Z,12.53
2023-01-13T12:05:23.982Z,13.07
2023-01-13T12:08:03.065Z,13.93
2023-01-13T12:11:00.235Z,14.60
2023-01-13T12:13:46.398Z,12.10
2023-01-13T12:16:21.118Z,13.53
2023-01-13T12:19:07.832Z,14.65
2023-01-13T12:21:41.579Z,15.68
2023-01-13T12:24:20.837Z,14.88
2023-01-13T12:26:59.685Z,14.32
2023-01-13T12:29:33.150Z,15.60
2023-01-13T12:32:03.545Z,15.23
2023-01-13T12:34:51.000Z,15.68
2023-01-13T12:37:44.980Z,13.77
2023-01-13T12:40:18.025Z,14.02
2023-01-13T12:43:22.405Z,13.82
2023-01-13T12:45:49.364Z,13.07
2023-01-13T12:48:55.403Z,12.38
2023-01-13T12:51:33.455Z,13.60
2023-01-13T12:54:21.278Z,13.98
2023-01-13T12:56:48.403Z,13.73
2023-01-13T12:59:20.737Z,14.90
2023-01-13T13:02:10.971Z,16.10
2023-01-13T13:04:51.846Z,15.13
2023-01-13T13:07:30.852Z,16.42
2023-01-13T13:10:05.516Z,18.70
2023-01-13T13:13:00.276Z,19.77
2023-01-13T13:15:37.133Z,17.92
2023-01-13T13:18:24.493Z,19.50
2023-01-13T13:21:04.749Z,20.52
2023-01-13T13:23:38.045Z,22.17
2023-01-13T13:26:24.845Z,22.20
2023-01-13T13:29:06.611Z,18.00
2023-01-13T13:32:04.391Z,20.95
2023-01-13T13:34:52.746Z,19.10
2023-01-13T13:38:00.205Z,20.83
2023-01-13T13:40:50.417Z,16.67
2023-01-13T13:43:36.882Z,14.98
2023-01-13T13:46:49.446Z,16.65
2023-01-13T13:49:40.571Z,17.05
2023-01-13T13:52:15.102Z,20.23
2023-01-13T13:54:47.578Z,19.80
2023-01-13T13:57:18.187Z,18.17
2023-01-13T13:59:45.082Z,16.85
2023-01-13T14:02:23.965Z,20.00
2023-01-13T14:04:50.874Z,18.33
2023-01-13T14:07:21.259Z,16.90
2023-01-13T14:09:53.052Z,15.57
2023-01-13T14:12:27.620Z,15.52
2023-01-13T14:14:57.655Z,16.73
2023-01-13T14:17:28.560Z,16.17
2023-01-13T14:20:05.754Z,14.05
2023-01-13T14:22:33.011Z,20.15
2023-01-13T14:25:02.126Z,17.33
2023-01-13T14:27:30.803Z,17.50
2023-01-13T14:30:00.656Z,19.27
2023-01-13T14:32:35.165Z,20.65
2023-01-13T14:35:03.453Z,18.30
2023-01-13T14:37:41.987Z,19.25
2023-01-13T14:40:33.348Z,18.63
2023-01-13T14:43:01.608Z,22.55
2023-01-13T14:45:29.411Z,22.95
2023-01-13T14:47:58.493Z,27.48
2023-01-13T14:50:31.698Z,30.00
2023-01-13T14:53:00.900Z,27.10
2023-01-13T14:55:31.730Z,25.73
2023-01-13T14:58:22.239Z,27.00
2023-01-13T15:00:50.547Z,30.95
2023-01-13T15:03:20.003Z,29.25
2023-01-13T15:05:53.688Z,30.55
2023-01-13T15:08:30.089Z,31.95
2023-01-13T15:11:02.940Z,31.20
2023-01-13T15:13:29.959Z,32.45
2023-01-13T15:16:00.324Z,31.98
2023-01-13T15:18:28.023Z,32.53
2023-01-13T15:20:55.064Z,34.95
2023-01-13T15:23:22.123Z,31.58
2023-01-13T15:25:57.972Z,29.95
2023-01-13T15:28:27.275Z,27.35
2023-01-13T15:30:56.197Z,31.70
2023-01-13T15:33:23.155Z,31.58
2023-01-13T15:35:53.674Z,30.30
2023-01-13T15:38:23.399Z,34.70
2023-01-13T15:40:52.115Z,33.08
2023-01-13T15:43:56.842Z,31.65
2023-01-13T15:46:39.327Z,34.20
2023-01-13T15:49:35.057Z,33.63
2023-01-13T15:52:14.221Z,34.65
2023-01-13T15:54:41.142Z,37.47
2023-01-13T15:57:32.783Z,39.47
2023-01-13T16:00:05.993Z,42.30
2023-01-13T16:02:32.811Z,44.17
2023-01-13T16:04:59.690Z,42.78
2023-01-13T16:07:26.740Z,41.17
2023-01-13T16:09:53.929Z,39.55
2023-01-13T16:12:21.105Z,43.20
2023-01-13T16:14:48.047Z,40.40
2023-01-13T16:17:17.810Z,45.33
2023-01-13T16:19:45.370Z,47.17
2023-01-13T16:22:14.374Z,46.17
2023-01-13T16:24:42.061Z,44.63
2023-01-13T16:27:18.820Z,48.88
2023-01-13T16:29:46.536Z,50.10
2023-01-13T16:32:13.813Z,48.20
2023-01-13T16:34:41.411Z,47.10
2023-01-13T16:37:24.610Z,49.67
2023-01-13T16:39:53.103Z,47.60
2023-01-13T16:42:20.876Z,46.17
2023-01-13T16:44:48.727Z,43.22
2023-01-13T16:47:16.939Z,40.72
2023-01-13T16:49:44.586Z,38.55
2023-01-13T16:52:11.640Z,37.05
2023-01-13T16:54:38.479Z,37.83
2023-01-13T16:57:07.455Z,38.60
2023-01-13T16:59:34.299Z,39.45
2023-01-13T17:02:02.440Z,40.40
2023-01-13T17:04:29.402Z,36.13
2023-01-13T17:06:58.554Z,37.47
2023-01-13T17:09:27.559Z,36.88
2023-01-13T17:11:55.341Z,33.70
2023-01-13T17:14:23.675Z,33.67
2023-01-13T17:16:53.029Z,36.33
2023-01-13T17:19:22.142Z,40.55
2023-01-13T17:21:51.127Z,38.88
2023-01-13T17:24:18.133Z,41.38
2023-01-13T17:26:49.430Z,44.65
2023-01-13T17:29:17.627Z,51.95
2023-01-13T17:31:45.035Z,46.17
2023-01-13T17:34:12.995Z,51.65
2023-01-13T17:36:40.178Z,49.85
2023-01-13T17:39:07.170Z,45.40
2023-01-13T17:41:34.168Z,47.30
2023-01-13T17:44:00.993Z,45.25
2023-01-13T17:46:27.912Z,46.33
2023-01-13T17:48:55.321Z,46.30
2023-01-13T17:51:25.697Z,48.38
2023-01-13T17:53:54.014Z,58.70
2023-01-13T17:56:20.832Z,61.17
2023-01-13T17:58:47.645Z,66.40
2023-01-13T18:01:18.141Z,67.55
2023-01-13T18:03:50.791Z,79.97
2023-01-13T18:06:20.809Z,93.15
2023-01-13T18:08:48.031Z,120.80
2023-01-13T18:11:19.808Z,135.48
2023-01-13T18:13:48.316Z,140.48
2023-01-13T18:16:17.407Z,150.55
2023-01-13T18:19:22.434Z,145.68
2023-01-13T18:22:07.843Z,96.30
2023-01-13T18:24:54.122Z,103.78
2023-01-13T18:27:28.643Z,81.82
2023-01-13T18:29:57.724Z,105.47
2023-01-13T18:32:30.939Z,82.15
2023-01-13T18:35:05.564Z,77.82
2023-01-13T18:37:36.069Z,79.28
2023-01-13T18:40:04.644Z,74.50
2023-01-13T18:42:50.227Z,79.80
2023-01-13T18:45:18.530Z,70.22
2023-01-13T18:47:45.818Z,73.15
2023-01-13T18:50:13.841Z,66.57
2023-01-13T18:52:41.516Z,66.57
2023-01-13T18:55:11.092Z,63.08
2023-01-13T18:57:40.689Z,62.30
2023-01-13T19:00:13.532Z,66.68
2023-01-13T19:02:40.848Z,67.13
2023-01-13T19:05:08.185Z,69.43
2023-01-13T19:07:36.256Z,65.10
2023-01-13T19:10:12.174Z,59.22
2023-01-13T19:12:39.136Z,58.75
2023-01-13T19:15:06.455Z,58.05
2023-01-13T19:17:35.155Z,60.90
2023-01-13T19:20:02.768Z,57.00
2023-01-13T19:22:32.950Z,58.53
2023-01-13T19:25:01.745Z,60.15
2023-01-13T19:27:29.394Z,59.42
2023-01-13T19:29:58.827Z,60.97
2023-01-13T19:32:26.170Z,56.88
2023-01-13T19:34:55.217Z,55.10
2023-01-13T19:37:22.187Z,56.05
2023-01-13T19:39:49.065Z,58.85
2023-01-13T19:42:34.844Z,57.83
2023-01-13T19:45:20.303Z,58.63
2023-01-13T19:47:47.244Z,55.97
2023-01-13T19:50:26.321Z,53.58
2023-01-13T19:53:04.081Z,53.70
2023-01-13T19:55:32.112Z,47.92
2023-01-13T19:57:59.298Z,47.10
2023-01-13T20:00:26.256Z,47.75
2023-01-13T20:02:53.440Z,44.72
2023-01-13T20:05:24.442Z,45.88
2023-01-13T20:07:52.320Z,44.38
2023-01-13T20:10:21.147Z,44.67
2023-01-13T20:12:48.196Z,43.83
2023-01-13T20:15:15.521Z,45.00
2023-01-13T20:17:42.371Z,42.60
2023-01-13T20:20:10.850Z,42.72
2023-01-13T20:22:41.061Z,40.47
2023-01-13T20:25:09.227Z,38.53
2023-01-13T20:27:37.445Z,38.55
2023-01-13T20:30:05.987Z,38.85
2023-01-13T20:32:32.904Z,37.75
2023-01-13T20:34:59.727Z,38.42
2023-01-13T20:37:26.820Z,37.47
2023-01-13T20:39:54.756Z,36.30
2023-01-13T20:42:31.714Z,36.45
2023-01-13T20:45:01.444Z,35.33
2023-01-13T20:47:29.642Z,34.65
2023-01-13T20:49:56.563Z,34.45
2023-01-13T20:52:23.717Z,33.50
2023-01-13T20:54:50.620Z,47.97
2023-01-13T20:57:17.713Z,51.15
2023-01-13T20:59:44.890Z,47.50
2023-01-13T21:02:14.475Z,48.00
2023-01-13T21:04:41.832Z,47.35
2023-01-13T21:07:09.126Z,46.50
2023-01-13T21:09:38.897Z,45.75
2023-01-13T21:12:25.097Z,46.97
2023-01-13T21:15:11.148Z,42.40
2023-01-13T21:17:56.735Z,39.33
2023-01-13T21:20:23.821Z,39.60
2023-01-13T21:22:50.657Z,41.70
2023-01-13T21:25:18.687Z,40.13
2023-01-13T21:28:10.416Z,37.78
2023-01-13T21:30:39.075Z,37.95
2023-01-13T21:33:06.520Z,39.47
2023-01-13T21:35:33.630Z,38.45
2023-01-13T21:38:00.721Z,41.95
2023-01-13T21:40:27.632Z,37.63
2023-01-13T21:43:13.263Z,38.00
2023-01-13T21:46:15.270Z,37.95
2023-01-13T21:48:42.123Z,45.45
2023-01-13T21:51:08.994Z,45.40
2023-01-13T21:53:35.795Z,45.47
2023-01-13T21:56:02.626Z,46.33
2023-01-13T21:58:29.488Z,46.53
2023-01-13T22:00:56.552Z,46.65
2023-01-13T22:03:23.693Z,46.08
2023-01-13T22:05:55.734Z,48.58
2023-01-13T22:08:22.650Z,49.05
2023-01-13T22:10:58.171Z,51.83
2023-01-13T22:13:45.618Z,53.77
2023-01-13T22:16:13.431Z,55.58
2023-01-13T22:18:40.323Z,55.30
2023-01-13T22:21:07.885Z,53.60
2023-01-13T22:23:34.847Z,60.15
2023-01-13T22:26:06.590Z,54.08
2023-01-13T22:28:51.735Z,53.15
2023-01-13T22:31:23.986Z,50.03
2023-01-13T22:33:56.737Z,54.45
2023-01-13T22:36:24.394Z,49.00
2023-01-13T22:38:56.454Z,54.30
2023-01-13T22:41:23.937Z,58.95
2023-01-13T22:43:50.827Z,57.38
2023-01-13T22:46:17.903Z,64.28
2023-01-13T22:48:46.205Z,59.65
2023-01-13T22:51:18.715Z,55.92
2023-01-13T22:54:03.885Z,56.72
2023-01-13T22:56:30.762Z,56.72
2023-01-13T22:58:59.919Z,55.97
2023-01-13T23:01:28.852Z,55.08
2023-01-13T23:03:56.526Z,52.03
2023-01-13T23:06:25.733Z,52.55
2023-01-13T23:08:53.240Z,51.65
2023-01-13T23:11:23.571Z,51.00
2023-01-13T23:13:53.176Z,50.30
2023-01-13T23:16:24.096Z,52.53
2023-01-13T23:18:50.994Z,52.17
2023-01-13T23:21:29.878Z,53.72
2023-01-13T23:23:58.740Z,55.42
2023-01-13T23:26:27.373Z,55.08
2023-01-13T23:28:58.888Z,58.13
2023-01-13T23:31:25.656Z,58.45
2023-01-13T23:33:52.508Z,58.30
2023-01-13T23:36:22.409Z,58.72
2023-01-13T23:38:49.651Z,59.95
2023-01-13T23:41:19.555Z,60.70
2023-01-13T23:44:00.652Z,55.88
2023-01-13T23:46:32.759Z,51.83
2023-01-13T23:49:01.025Z,47.53
2023-01-13T23:51:30.185Z,45.40
2023-01-13T23:53:58.605Z,46.03
2023-01-13T23:56:28.555Z,43.30
2023-01-13T23:58:55.982Z,41.45
